Terminal Aerodrome Forecast
Issued by NWS Sioux Falls, SD

Home | Current Version | Previous Version | Graphics & Text | Print | Product List | Glossary Off
Versions: 1 2 3 4 5 6 7 8 9 10 11 12 13 14 15 16 17 18 19 20 21 22 23 24 25 26 27 28 29 30

000
FTUS43 KFSD 251922 AAA
TAFSUX
TAF AMD
KSUX 251922Z 2519/2618 33013G21KT P6SM SKC
     FM252100 31009KT P6SM FEW250
     FM260100 36006KT P6SM FEW250
     FM260900 VRB03KT P6SM SCT200
     FM261700 02007KT P6SM FEW130=

USA.gov is the U.S. government's official web portal to all federal, state and local government web resources and services.